Time;durP1;ratioP1;P1;durP2;ratioP2;P2;SDS_P1;SDS_P2;PMS_P1;PMS_P2;Temp;Humidity;BMP_temperature;BMP_pressure;BME280_temperature;BME280_humidity;BME280_pressure;Samples;Min_cycle;Max_cycle;Signal;HPM_P1;HPM_P2
2023/07/28 00:00:58;;;;;;;2.10;1.30;;;;;;;-128.00;-1.00;-1.00;97924;295;1004514;-31
2023/07/28 00:03:24;;;;;;;1.70;1.30;;;;;;;-128.00;-1.00;-1.00;97959;295;1003597;-32
2023/07/28 00:05:50;;;;;;;3.80;1.70;;;;;;;-128.00;-1.00;-1.00;97927;295;1003281;-33
2023/07/28 00:08:15;;;;;;;2.20;1.70;;;;;;;-128.00;-1.00;-1.00;97841;295;1004621;-29
2023/07/28 00:10:42;;;;;;;2.40;1.20;;;;;;;-128.00;-1.00;-1.00;97993;295;1002587;-29
2023/07/28 00:13:08;;;;;;;2.70;1.50;;;;;;;-128.00;-1.00;-1.00;97958;295;1003790;-33
2023/07/28 00:15:34;;;;;;;1.70;1.20;;;;;;;-128.00;-1.00;-1.00;98101;295;1003125;-28
2023/07/28 00:18:02;;;;;;;5.80;1.00;;;;;;;-128.00;-1.00;-1.00;97856;295;1003564;-30
2023/07/28 00:20:28;;;;;;;1.80;1.20;;;;;;;-128.00;-1.00;-1.00;98130;295;1002994;-34
2023/07/28 00:22:54;;;;;;;1.80;1.30;;;;;;;-128.00;-1.00;-1.00;97889;295;1003681;-30
2023/07/28 00:25:20;;;;;;;2.80;0.90;;;;;;;-128.00;-1.00;-1.00;98013;295;1003345;-31
2023/07/28 00:27:45;;;;;;;2.80;1.70;;;;;;;-128.00;-1.00;-1.00;97942;295;1003866;-31
2023/07/28 00:30:11;;;;;;;5.80;1.20;;;;;;;-128.00;-1.00;-1.00;97907;295;1003607;-36
2023/07/28 00:32:37;;;;;;;1.60;1.20;;;;;;;-128.00;-1.00;-1.00;97939;295;1003981;-36
2023/07/28 00:35:03;;;;;;;3.80;1.30;;;;;;;-128.00;-1.00;-1.00;97869;295;1002822;-36
2023/07/28 01:17:58;;;;;;;12.70;1.60;;;;;;;-99.48;17.93;19691.40;90026;295;3003290;-30
2023/07/28 01:20:27;;;;;;;1.50;1.10;;;;;;;-128.00;-1.00;-1.00;18480;288;7504812;-35
2023/07/28 01:23:07;;;;;;;2.10;1.00;;;;;;;-128.00;-1.00;-1.00;18497;288;7505615;-35
2023/07/28 01:25:49;;;;;;;3.40;1.20;;;;;;;-128.00;-1.00;-1.00;18462;294;7506033;-32
2023/07/28 01:28:17;;;;;;;1.80;1.20;;;;;;;-128.00;-1.00;-1.00;18468;296;7504177;-35
2023/07/28 01:30:42;;;;;;;1.20;0.90;;;;;;;-128.00;-1.00;-1.00;18477;294;7506176;-35
2023/07/28 01:33:08;;;;;;;2.00;1.50;;;;;;;-128.00;-1.00;-1.00;18479;339;7504323;-35
2023/07/28 01:35:38;;;;;;;2.30;1.30;;;;;;;-128.00;-1.00;-1.00;18462;339;7505092;-35
2023/07/28 01:38:04;;;;;;;1.60;1.10;;;;;;;-128.00;-1.00;-1.00;18481;288;7504793;-31
2023/07/28 01:40:30;;;;;;;1.30;1.00;;;;;;;-128.00;-1.00;-1.00;18474;294;7506268;-35
2023/07/28 01:42:56;;;;;;;1.60;1.00;;;;;;;-128.00;-1.00;-1.00;18508;295;7504859;-31
2023/07/28 01:45:21;;;;;;;1.90;1.40;;;;;;;-128.00;-1.00;-1.00;18461;294;7504728;-35
2023/07/28 01:47:48;;;;;;;1.50;0.90;;;;;;;-128.00;-1.00;-1.00;18879;347;7505835;-32
2023/07/28 01:50:14;;;;;;;2.00;1.20;;;;;;;-128.00;-1.00;-1.00;18871;294;7504929;-31
2023/07/28 01:52:40;;;;;;;8.20;1.30;;;;;;;-128.00;-1.00;-1.00;18862;294;7504641;-34
2023/07/28 01:55:07;;;;;;;1.80;0.90;;;;;;;-128.00;-1.00;-1.00;18480;339;7504522;-33
2023/07/28 01:57:33;;;;;;;1.50;1.10;;;;;;;-128.00;-1.00;-1.00;18492;294;7506194;-31
2023/07/28 01:59:59;;;;;;;0.90;0.70;;;;;;;-128.00;-1.00;-1.00;18498;347;7504628;-36
2023/07/28 02:02:25;;;;;;;1.30;0.90;;;;;;;-128.00;-1.00;-1.00;18479;294;7506228;-36
2023/07/28 02:04:51;;;;;;;4.00;1.20;;;;;;;-128.00;-1.00;-1.00;18872;307;7505392;-36
2023/07/28 02:07:17;;;;;;;1.50;0.90;;;;;;;-128.00;-1.00;-1.00;18902;294;7505427;-36
2023/07/28 02:09:43;;;;;;;5.60;1.70;;;;;;;-128.00;-1.00;-1.00;18877;295;7504315;-33
2023/07/28 02:12:09;;;;;;;1.80;1.00;;;;;;;-128.00;-1.00;-1.00;18904;294;7504781;-32
2023/07/28 02:14:35;;;;;;;2.10;0.90;;;;;;;-128.00;-1.00;-1.00;18893;294;7504992;-35
2023/07/28 02:17:01;;;;;;;2.60;1.30;;;;;;;-128.00;-1.00;-1.00;18858;347;7504630;-36
2023/07/28 02:19:28;;;;;;;2.00;1.40;;;;;;;-128.00;-1.00;-1.00;18903;295;7504192;-35
2023/07/28 02:21:54;;;;;;;2.10;1.30;;;;;;;-128.00;-1.00;-1.00;18858;295;7505492;-35
2023/07/28 02:24:20;;;;;;;2.00;1.30;;;;;;;-128.00;-1.00;-1.00;18895;295;7504775;-31
2023/07/28 02:26:46;;;;;;;2.20;0.90;;;;;;;-128.00;-1.00;-1.00;18872;295;7504320;-30
2023/07/28 02:29:12;;;;;;;2.10;1.30;;;;;;;-128.00;-1.00;-1.00;18881;295;7504992;-32
2023/07/28 02:31:39;;;;;;;2.20;1.20;;;;;;;-128.00;-1.00;-1.00;18873;295;7504572;-35
2023/07/28 02:34:05;;;;;;;1.60;1.40;;;;;;;-128.00;-1.00;-1.00;18874;295;7505513;-35
2023/07/28 02:36:31;;;;;;;1.30;1.10;;;;;;;-128.00;-1.00;-1.00;18880;340;7504455;-36
2023/07/28 02:38:57;;;;;;;1.80;1.50;;;;;;;-128.00;-1.00;-1.00;18872;295;7504329;-35
2023/07/28 02:41:23;;;;;;;2.30;1.30;;;;;;;-128.00;-1.00;-1.00;18862;287;7505171;-31
2023/07/28 02:43:50;;;;;;;4.50;1.50;;;;;;;-128.00;-1.00;-1.00;18850;295;7504108;-32
2023/07/28 02:46:16;;;;;;;2.80;1.30;;;;;;;-128.00;-1.00;-1.00;18869;295;7504235;-31
2023/07/28 02:48:42;;;;;;;3.00;1.20;;;;;;;-128.00;-1.00;-1.00;18896;347;7505081;-35
2023/07/28 02:51:08;;;;;;;1.80;1.20;;;;;;;-128.00;-1.00;-1.00;18884;295;7504871;-32
2023/07/28 02:53:34;;;;;;;1.20;1.00;;;;;;;-128.00;-1.00;-1.00;18875;295;7505145;-31
2023/07/28 02:56:01;;;;;;;1.60;1.30;;;;;;;-128.00;-1.00;-1.00;18503;323;7504506;-35
2023/07/28 02:58:27;;;;;;;1.90;1.10;;;;;;;-128.00;-1.00;-1.00;18852;306;7505996;-32
2023/07/28 03:00:53;;;;;;;2.20;1.50;;;;;;;-128.00;-1.00;-1.00;18897;295;7504770;-35
2023/07/28 03:03:19;;;;;;;2.50;1.30;;;;;;;-128.00;-1.00;-1.00;18879;295;7504244;-35
2023/07/28 03:05:46;;;;;;;5.00;1.20;;;;;;;-128.00;-1.00;-1.00;18889;295;7505240;-35
2023/07/28 03:08:12;;;;;;;2.20;1.10;;;;;;;-128.00;-1.00;-1.00;18869;336;7505073;-35
2023/07/28 03:10:38;;;;;;;2.10;1.20;;;;;;;-128.00;-1.00;-1.00;18867;295;7504765;-31
2023/07/28 03:13:04;;;;;;;1.30;0.90;;;;;;;-128.00;-1.00;-1.00;18923;295;7504482;-35
2023/07/28 03:15:30;;;;;;;1.80;0.90;;;;;;;-128.00;-1.00;-1.00;18863;295;7505217;-31
2023/07/28 03:17:57;;;;;;;2.80;1.30;;;;;;;-128.00;-1.00;-1.00;18906;295;7505255;-35
2023/07/28 03:20:23;;;;;;;2.40;1.10;;;;;;;-128.00;-1.00;-1.00;18879;295;7505264;-35
2023/07/28 03:22:49;;;;;;;1.90;1.30;;;;;;;-128.00;-1.00;-1.00;18857;295;7505335;-35
2023/07/28 03:25:15;;;;;;;4.40;1.40;;;;;;;-128.00;-1.00;-1.00;18923;295;7505184;-31
2023/07/28 03:27:42;;;;;;;2.60;1.10;;;;;;;-128.00;-1.00;-1.00;18935;295;7504136;-31
2023/07/28 03:30:10;;;;;;;2.10;1.30;;;;;;;-128.00;-1.00;-1.00;18900;295;7506016;-33
2023/07/28 03:32:36;;;;;;;1.90;1.00;;;;;;;-128.00;-1.00;-1.00;18491;284;7505379;-36
2023/07/28 03:35:04;;;;;;;1.10;1.00;;;;;;;-128.00;-1.00;-1.00;18471;295;7504067;-35
2023/07/28 03:37:31;;;;;;;1.90;1.00;;;;;;;-128.00;-1.00;-1.00;18453;336;7504772;-35
2023/07/28 03:39:57;;;;;;;1.20;0.90;;;;;;;-128.00;-1.00;-1.00;18466;295;7506210;-35
2023/07/28 03:42:23;;;;;;;1.80;1.10;;;;;;;-128.00;-1.00;-1.00;18457;336;7504515;-35
2023/07/28 03:44:49;;;;;;;2.60;1.30;;;;;;;-128.00;-1.00;-1.00;18899;295;7504208;-35
2023/07/28 03:47:15;;;;;;;3.00;1.20;;;;;;;-128.00;-1.00;-1.00;18880;295;7504090;-35
2023/07/28 03:49:41;;;;;;;1.90;1.20;;;;;;;-128.00;-1.00;-1.00;18888;295;7504859;-31
2023/07/28 03:52:07;;;;;;;2.40;1.10;;;;;;;-128.00;-1.00;-1.00;18886;295;7506111;-34
2023/07/28 03:54:33;;;;;;;1.50;1.30;;;;;;;-128.00;-1.00;-1.00;18888;287;7504806;-34
2023/07/28 03:57:00;;;;;;;1.00;0.90;;;;;;;-128.00;-1.00;-1.00;18459;295;7506547;-36
2023/07/28 03:59:26;;;;;;;2.00;1.40;;;;;;;-128.00;-1.00;-1.00;18856;295;7504104;-34
2023/07/28 04:01:52;;;;;;;1.10;0.90;;;;;;;-128.00;-1.00;-1.00;18852;336;7504395;-35
2023/07/28 04:04:18;;;;;;;1.20;0.80;;;;;;;-128.00;-1.00;-1.00;18489;295;7506252;-31
2023/07/28 04:06:45;;;;;;;1.50;1.00;;;;;;;-128.00;-1.00;-1.00;18517;295;7507016;-35
2023/07/28 04:09:14;;;;;;;2.10;1.40;;;;;;;-128.00;-1.00;-1.00;18462;295;7506734;-34
2023/07/28 04:11:40;;;;;;;3.50;1.30;;;;;;;-128.00;-1.00;-1.00;18471;295;7505798;-31
2023/07/28 04:14:05;;;;;;;2.20;1.00;;;;;;;-128.00;-1.00;-1.00;18481;287;7505164;-31
2023/07/28 04:16:32;;;;;;;1.50;1.10;;;;;;;-128.00;-1.00;-1.00;18474;295;7505064;-32
2023/07/28 04:18:58;;;;;;;2.30;2.10;;;;;;;-128.00;-1.00;-1.00;18445;295;7506100;-31
2023/07/28 04:21:24;;;;;;;2.10;1.60;;;;;;;-128.00;-1.00;-1.00;18481;295;7505242;-35
2023/07/28 04:23:50;;;;;;;2.00;0.90;;;;;;;-128.00;-1.00;-1.00;18875;295;7504322;-36
2023/07/28 04:26:17;;;;;;;2.50;1.40;;;;;;;-128.00;-1.00;-1.00;18896;335;7504950;-37
2023/07/28 04:28:42;;;;;;;1.40;0.90;;;;;;;-128.00;-1.00;-1.00;18463;295;7504719;-30
2023/07/28 04:31:08;;;;;;;3.10;1.60;;;;;;;-128.00;-1.00;-1.00;18867;319;7505279;-33
2023/07/28 04:33:35;;;;;;;2.30;1.30;;;;;;;-128.00;-1.00;-1.00;18844;295;7504390;-37
2023/07/28 04:36:02;;;;;;;1.30;1.00;;;;;;;-128.00;-1.00;-1.00;18863;295;7505960;-32
2023/07/28 04:38:28;;;;;;;2.10;1.30;;;;;;;-128.00;-1.00;-1.00;18511;295;7506470;-32
2023/07/28 04:40:54;;;;;;;4.20;1.10;;;;;;;-128.00;-1.00;-1.00;18460;295;7506206;-36
2023/07/28 04:43:19;;;;;;;1.90;1.10;;;;;;;-128.00;-1.00;-1.00;18457;287;7506555;-32
2023/07/28 04:45:45;;;;;;;1.90;1.20;;;;;;;-128.00;-1.00;-1.00;18875;295;7504965;-36
2023/07/28 04:48:12;;;;;;;1.70;1.10;;;;;;;-128.00;-1.00;-1.00;18879;295;7504754;-35
2023/07/28 04:50:38;;;;;;;1.80;1.20;;;;;;;-128.00;-1.00;-1.00;18873;295;7504957;-31
2023/07/28 04:53:04;;;;;;;2.80;1.30;;;;;;;-128.00;-1.00;-1.00;18898;295;7505020;-31
2023/07/28 04:55:30;;;;;;;4.20;1.10;;;;;;;-128.00;-1.00;-1.00;18872;287;7504656;-34
2023/07/28 04:57:57;;;;;;;1.00;0.90;;;;;;;-128.00;-1.00;-1.00;18446;296;7506013;-31
2023/07/28 05:00:23;;;;;;;5.70;1.50;;;;;;;-128.00;-1.00;-1.00;18889;287;7504355;-31
2023/07/28 05:02:49;;;;;;;2.10;1.40;;;;;;;-128.00;-1.00;-1.00;18850;285;7504327;-34
2023/07/28 05:05:16;;;;;;;4.00;0.90;;;;;;;-128.00;-1.00;-1.00;18874;307;7504525;-31
2023/07/28 05:07:42;;;;;;;2.00;1.00;;;;;;;-128.00;-1.00;-1.00;18879;295;7504718;-31
2023/07/28 05:10:09;;;;;;;1.20;0.80;;;;;;;-128.00;-1.00;-1.00;18892;287;7504348;-32
2023/07/28 05:12:34;;;;;;;2.60;1.70;;;;;;;-128.00;-1.00;-1.00;18459;295;7505757;-34
2023/07/28 05:15:00;;;;;;;3.10;1.30;;;;;;;-128.00;-1.00;-1.00;18459;295;7505102;-38
2023/07/28 05:17:26;;;;;;;3.20;1.40;;;;;;;-128.00;-1.00;-1.00;18441;297;7504831;-36
2023/07/28 05:19:51;;;;;;;3.40;0.90;;;;;;;-128.00;-1.00;-1.00;18466;288;7504301;-35
2023/07/28 05:22:17;;;;;;;2.00;1.40;;;;;;;-128.00;-1.00;-1.00;18471;287;7506854;-31
2023/07/28 05:24:44;;;;;;;3.20;1.10;;;;;;;-128.00;-1.00;-1.00;18456;295;7505274;-35
2023/07/28 05:27:10;;;;;;;3.70;1.10;;;;;;;-128.00;-1.00;-1.00;18456;335;7504712;-35
2023/07/28 05:29:36;;;;;;;1.30;0.70;;;;;;;-128.00;-1.00;-1.00;18455;347;7506777;-34
2023/07/28 05:32:01;;;;;;;0.80;0.70;;;;;;;-128.00;-1.00;-1.00;18473;330;7505750;-30
2023/07/28 05:34:27;;;;;;;2.40;0.80;;;;;;;-128.00;-1.00;-1.00;18873;295;7504428;-30
2023/07/28 05:36:54;;;;;;;2.50;1.00;;;;;;;-128.00;-1.00;-1.00;18901;295;7505140;-35
2023/07/28 05:39:20;;;;;;;2.80;0.90;;;;;;;-128.00;-1.00;-1.00;18870;303;7504568;-31
2023/07/28 05:41:46;;;;;;;2.20;1.40;;;;;;;-128.00;-1.00;-1.00;18878;295;7504400;-32
2023/07/28 05:44:12;;;;;;;1.60;1.00;;;;;;;-128.00;-1.00;-1.00;18875;295;7504476;-32
2023/07/28 05:46:38;;;;;;;1.90;1.10;;;;;;;-128.00;-1.00;-1.00;18892;287;7505744;-35
2023/07/28 05:49:04;;;;;;;1.60;1.10;;;;;;;-128.00;-1.00;-1.00;18900;295;7504397;-31
2023/07/28 05:51:31;;;;;;;4.30;1.20;;;;;;;-128.00;-1.00;-1.00;18907;295;7504599;-35
2023/07/28 05:53:57;;;;;;;1.70;0.80;;;;;;;-128.00;-1.00;-1.00;18881;303;7505330;-35
2023/07/28 05:56:23;;;;;;;2.10;1.30;;;;;;;-128.00;-1.00;-1.00;18861;347;7504564;-36
2023/07/28 05:58:50;;;;;;;1.80;1.10;;;;;;;-128.00;-1.00;-1.00;18864;295;7504535;-31
2023/07/28 06:01:16;;;;;;;1.90;1.00;;;;;;;-128.00;-1.00;-1.00;18488;295;7506067;-31
2023/07/28 06:03:42;;;;;;;1.10;0.80;;;;;;;-128.00;-1.00;-1.00;18488;347;7505107;-35
2023/07/28 06:06:07;;;;;;;4.90;1.00;;;;;;;-128.00;-1.00;-1.00;18472;283;7506061;-31
2023/07/28 06:08:34;;;;;;;4.30;1.20;;;;;;;-128.00;-1.00;-1.00;18855;318;7505170;-35
2023/07/28 06:11:02;;;;;;;1.80;0.90;;;;;;;-128.00;-1.00;-1.00;18866;302;7504990;-35
2023/07/28 06:13:28;;;;;;;1.30;0.80;;;;;;;-128.00;-1.00;-1.00;18468;295;7505987;-31
2023/07/28 06:15:58;;;;;;;2.60;1.10;;;;;;;-128.00;-1.00;-1.00;18466;295;7507081;-36
2023/07/28 06:18:24;;;;;;;1.60;1.00;;;;;;;-128.00;-1.00;-1.00;18473;287;7506340;-31
2023/07/28 06:20:49;;;;;;;1.70;1.20;;;;;;;-128.00;-1.00;-1.00;18482;347;7504638;-32
2023/07/28 06:23:16;;;;;;;4.40;2.10;;;;;;;-128.00;-1.00;-1.00;18907;295;7505064;-31
2023/07/28 06:25:45;;;;;;;7.80;1.30;;;;;;;-128.00;-1.00;-1.00;18866;347;7505342;-33
2023/07/28 06:28:11;;;;;;;2.80;1.60;;;;;;;-128.00;-1.00;-1.00;18467;295;7506144;-31
2023/07/28 06:30:37;;;;;;;1.40;0.80;;;;;;;-128.00;-1.00;-1.00;18473;287;7504481;-31
2023/07/28 06:33:05;;;;;;;1.00;0.80;;;;;;;-128.00;-1.00;-1.00;18486;295;7504928;-31
2023/07/28 06:35:30;;;;;;;2.00;1.40;;;;;;;-128.00;-1.00;-1.00;18455;295;7506777;-30
2023/07/28 06:37:57;;;;;;;0.80;0.60;;;;;;;-128.00;-1.00;-1.00;18464;295;7504273;-34
2023/07/28 06:40:22;;;;;;;0.70;0.60;;;;;;;-128.00;-1.00;-1.00;18446;297;7504659;-35
2023/07/28 06:42:48;;;;;;;2.50;0.80;;;;;;;-128.00;-1.00;-1.00;18467;339;7504365;-32
2023/07/28 06:45:14;;;;;;;4.60;1.30;;;;;;;-128.00;-1.00;-1.00;18863;295;7504952;-31
2023/07/28 06:47:41;;;;;;;1.50;0.60;;;;;;;-128.00;-1.00;-1.00;18899;295;7504850;-36
2023/07/28 06:50:07;;;;;;;1.40;0.80;;;;;;;-128.00;-1.00;-1.00;18881;287;7504362;-36
2023/07/28 06:52:33;;;;;;;1.20;0.80;;;;;;;-128.00;-1.00;-1.00;18495;319;7504658;-32
2023/07/28 06:54:59;;;;;;;1.50;0.90;;;;;;;-128.00;-1.00;-1.00;18850;299;7505412;-32
2023/07/28 06:57:25;;;;;;;1.50;1.00;;;;;;;-128.00;-1.00;-1.00;18853;289;7504431;-36
2023/07/28 06:59:51;;;;;;;2.80;0.70;;;;;;;-128.00;-1.00;-1.00;18886;307;7505232;-32
2023/07/28 07:02:18;;;;;;;1.40;0.90;;;;;;;-128.00;-1.00;-1.00;18894;287;7505265;-35
2023/07/28 07:04:44;;;;;;;0.70;0.60;;;;;;;-128.00;-1.00;-1.00;18871;295;7505681;-35
2023/07/28 07:07:11;;;;;;;2.00;1.10;;;;;;;-128.00;-1.00;-1.00;18887;306;7504926;-35
2023/07/28 07:09:37;;;;;;;1.10;0.60;;;;;;;-128.00;-1.00;-1.00;18462;295;7505119;-32
2023/07/28 07:12:03;;;;;;;3.00;0.90;;;;;;;-128.00;-1.00;-1.00;18469;295;7504390;-36
2023/07/28 07:14:29;;;;;;;3.80;0.70;;;;;;;-128.00;-1.00;-1.00;18466;287;7504802;-33
2023/07/28 07:16:54;;;;;;;1.00;0.60;;;;;;;-128.00;-1.00;-1.00;18466;295;7504810;-32
2023/07/28 07:19:20;;;;;;;2.60;1.60;;;;;;;-128.00;-1.00;-1.00;18476;347;7505021;-32
2023/07/28 07:21:47;;;;;;;1.20;0.60;;;;;;;-128.00;-1.00;-1.00;18487;287;7504281;-36
2023/07/28 07:24:14;;;;;;;1.50;0.60;;;;;;;-128.00;-1.00;-1.00;18453;295;7506634;-32
2023/07/28 07:26:40;;;;;;;0.80;0.60;;;;;;;-128.00;-1.00;-1.00;18464;295;7506164;-32
2023/07/28 07:29:08;;;;;;;3.20;0.70;;;;;;;-128.00;-1.00;-1.00;18473;318;7505942;-35
2023/07/28 07:31:33;;;;;;;1.10;0.70;;;;;;;-128.00;-1.00;-1.00;18444;336;7505981;-38
2023/07/28 07:34:00;;;;;;;1.70;1.00;;;;;;;-128.00;-1.00;-1.00;18862;295;7504622;-33
2023/07/28 07:36:26;;;;;;;2.50;0.60;;;;;;;-128.00;-1.00;-1.00;18869;303;7504382;-37
2023/07/28 07:38:52;;;;;;;1.10;0.80;;;;;;;-128.00;-1.00;-1.00;18863;283;7504418;-34
2023/07/28 07:41:21;;;;;;;2.60;1.30;;;;;;;-128.00;-1.00;-1.00;18873;295;7506010;-36
2023/07/28 07:43:48;;;;;;;1.60;1.10;;;;;;;-128.00;-1.00;-1.00;18472;295;7504857;-36
2023/07/28 07:46:15;;;;;;;3.60;0.90;;;;;;;-128.00;-1.00;-1.00;18469;295;7504398;-36
2023/07/28 07:48:40;;;;;;;0.60;0.60;;;;;;;-128.00;-1.00;-1.00;18470;347;7506003;-36
2023/07/28 07:51:07;;;;;;;1.80;0.60;;;;;;;-128.00;-1.00;-1.00;18500;295;7504317;-32
2023/07/28 07:53:32;;;;;;;0.50;0.40;;;;;;;-128.00;-1.00;-1.00;18478;283;7505985;-33
2023/07/28 07:55:58;;;;;;;0.80;0.60;;;;;;;-128.00;-1.00;-1.00;18475;295;7506059;-33
2023/07/28 07:58:24;;;;;;;3.10;1.20;;;;;;;-128.00;-1.00;-1.00;18874;295;7504213;-36
2023/07/28 08:00:51;;;;;;;0.60;0.50;;;;;;;-128.00;-1.00;-1.00;18914;295;7504384;-32
2023/07/28 08:03:17;;;;;;;4.90;0.60;;;;;;;-128.00;-1.00;-1.00;18468;295;7504659;-33
2023/07/28 08:05:43;;;;;;;2.70;0.30;;;;;;;-128.00;-1.00;-1.00;18503;295;7504388;-36
2023/07/28 08:08:09;;;;;;;0.50;0.30;;;;;;;-128.00;-1.00;-1.00;18866;296;7504473;-33
2023/07/28 08:10:35;;;;;;;2.90;1.40;;;;;;;-128.00;-1.00;-1.00;18480;295;7504977;-33
2023/07/28 08:13:01;;;;;;;0.80;0.60;;;;;;;-128.00;-1.00;-1.00;18486;340;7504665;-37
2023/07/28 08:15:26;;;;;;;0.80;0.40;;;;;;;-128.00;-1.00;-1.00;18463;295;7505576;-33
2023/07/28 08:17:52;;;;;;;0.60;0.40;;;;;;;-128.00;-1.00;-1.00;18886;347;7504577;-32
2023/07/28 08:20:19;;;;;;;2.50;0.40;;;;;;;-128.00;-1.00;-1.00;18883;283;7506802;-32
2023/07/28 08:22:45;;;;;;;0.90;0.30;;;;;;;-128.00;-1.00;-1.00;18913;295;7504589;-35
2023/07/28 08:25:12;;;;;;;0.80;0.40;;;;;;;-128.00;-1.00;-1.00;18870;295;7504867;-35
2023/07/28 08:27:38;;;;;;;0.60;0.30;;;;;;;-128.00;-1.00;-1.00;18454;330;7504824;-35
2023/07/28 08:30:05;;;;;;;0.70;0.50;;;;;;;-128.00;-1.00;-1.00;18866;340;7505377;-35
2023/07/28 08:32:31;;;;;;;0.50;0.40;;;;;;;-128.00;-1.00;-1.00;18461;287;7504254;-35
2023/07/28 08:34:56;;;;;;;1.30;0.50;;;;;;;-128.00;-1.00;-1.00;18480;288;7506216;-36
2023/07/28 08:37:22;;;;;;;0.60;0.30;;;;;;;-128.00;-1.00;-1.00;18508;295;7505901;-32
2023/07/28 08:39:48;;;;;;;1.60;0.50;;;;;;;-128.00;-1.00;-1.00;18477;340;7505135;-36
2023/07/28 08:42:15;;;;;;;0.50;0.40;;;;;;;-128.00;-1.00;-1.00;18897;287;7504435;-32
2023/07/28 08:44:41;;;;;;;0.50;0.50;;;;;;;-128.00;-1.00;-1.00;18461;295;7505220;-32
2023/07/28 08:47:07;;;;;;;1.30;0.60;;;;;;;-128.00;-1.00;-1.00;18476;288;7505108;-36
2023/07/28 08:49:35;;;;;;;0.70;0.50;;;;;;;-128.00;-1.00;-1.00;18481;295;7504203;-38
2023/07/28 08:52:01;;;;;;;0.70;0.30;;;;;;;-128.00;-1.00;-1.00;18483;287;7504870;-36
2023/07/28 08:54:27;;;;;;;3.20;0.70;;;;;;;-128.00;-1.00;-1.00;18475;340;7504477;-35
2023/07/28 08:56:53;;;;;;;0.70;0.50;;;;;;;-128.00;-1.00;-1.00;18461;295;7505792;-32
2023/07/28 08:59:23;;;;;;;1.20;0.40;;;;;;;-128.00;-1.00;-1.00;18480;287;7504770;-36
2023/07/28 09:01:50;;;;;;;0.80;0.30;;;;;;;-128.00;-1.00;-1.00;18461;295;7505579;-36
2023/07/28 09:04:16;;;;;;;4.20;0.50;;;;;;;-128.00;-1.00;-1.00;18480;295;7506182;-32
2023/07/28 09:06:46;;;;;;;0.30;0.30;;;;;;;-128.00;-1.00;-1.00;18475;295;7506141;-33
2023/07/28 09:09:11;;;;;;;0.50;0.50;;;;;;;-128.00;-1.00;-1.00;18501;295;7506309;-36
2023/07/28 09:11:48;;;;;;;0.70;0.50;;;;;;;-128.00;-1.00;-1.00;18458;287;7505792;-36
2023/07/28 09:14:16;;;;;;;1.70;0.70;;;;;;;-128.00;-1.00;-1.00;18460;287;7504299;-36
2023/07/28 09:16:42;;;;;;;0.60;0.50;;;;;;;-128.00;-1.00;-1.00;18481;295;7504531;-33
2023/07/28 09:19:08;;;;;;;0.40;0.30;;;;;;;-128.00;-1.00;-1.00;18487;311;7505975;-36
2023/07/28 09:21:34;;;;;;;1.20;0.60;;;;;;;-128.00;-1.00;-1.00;17963;336;7504476;-32
2023/07/28 09:24:03;;;;;;;0.40;0.30;;;;;;;-128.00;-1.00;-1.00;18484;347;7504807;-36
2023/07/28 09:26:42;;;;;;;1.00;0.40;;;;;;;-128.00;-1.00;-1.00;18476;335;7506152;-33
2023/07/28 09:29:16;;;;;;;1.10;0.30;;;;;;;-128.00;-1.00;-1.00;18499;295;7504861;-36
2023/07/28 09:31:46;;;;;;;1.30;0.60;;;;;;;-128.00;-1.00;-1.00;18467;295;7504593;-32
2023/07/28 09:34:13;;;;;;;1.30;0.40;;;;;;;-128.00;-1.00;-1.00;18461;295;7504609;-36
2023/07/28 09:36:39;;;;;;;1.20;0.40;;;;;;;-128.00;-1.00;-1.00;18476;287;7504870;-36
2023/07/28 09:39:08;;;;;;;1.00;0.50;;;;;;;-128.00;-1.00;-1.00;18486;295;7504285;-33
2023/07/28 09:41:35;;;;;;;0.50;0.50;;;;;;;-128.00;-1.00;-1.00;18491;295;7504317;-33
2023/07/28 09:44:01;;;;;;;0.70;0.60;;;;;;;-128.00;-1.00;-1.00;18462;319;7505198;-33
2023/07/28 09:46:28;;;;;;;0.80;0.50;;;;;;;-128.00;-1.00;-1.00;18896;295;7504406;-36
2023/07/28 09:48:56;;;;;;;1.00;0.50;;;;;;;-128.00;-1.00;-1.00;18490;318;7506359;-32
2023/07/28 09:51:22;;;;;;;0.40;0.40;;;;;;;-128.00;-1.00;-1.00;18464;295;7504328;-36
2023/07/28 09:53:52;;;;;;;1.00;0.40;;;;;;;-128.00;-1.00;-1.00;18492;296;7504780;-32
2023/07/28 09:56:18;;;;;;;0.60;0.40;;;;;;;-128.00;-1.00;-1.00;18452;295;7504749;-32
2023/07/28 09:58:48;;;;;;;0.90;0.60;;;;;;;-128.00;-1.00;-1.00;18511;288;7504918;-32
2023/07/28 10:01:14;;;;;;;1.10;0.60;;;;;;;-128.00;-1.00;-1.00;18491;295;7504208;-36
2023/07/28 10:03:40;;;;;;;0.50;0.40;;;;;;;-128.00;-1.00;-1.00;18451;295;7505826;-32
2023/07/28 10:06:06;;;;;;;0.50;0.50;;;;;;;-128.00;-1.00;-1.00;18900;336;7505382;-33
2023/07/28 10:08:33;;;;;;;4.20;0.40;;;;;;;-128.00;-1.00;-1.00;18895;295;7504771;-32
2023/07/28 10:10:59;;;;;;;0.40;0.20;;;;;;;-128.00;-1.00;-1.00;18894;295;7504648;-35
2023/07/28 10:13:27;;;;;;;1.40;0.50;;;;;;;-128.00;-1.00;-1.00;18866;295;7505325;-32
2023/07/28 10:15:52;;;;;;;0.60;0.40;;;;;;;-128.00;-1.00;-1.00;18470;295;7504809;-33
2023/07/28 10:18:22;;;;;;;1.50;0.60;;;;;;;-128.00;-1.00;-1.00;18479;287;7505790;-31
2023/07/28 10:20:49;;;;;;;0.70;0.30;;;;;;;-128.00;-1.00;-1.00;18471;295;7504802;-32
2023/07/28 10:23:16;;;;;;;0.70;0.40;;;;;;;-128.00;-1.00;-1.00;18456;295;7505761;-35
2023/07/28 10:25:43;;;;;;;1.00;0.70;;;;;;;-128.00;-1.00;-1.00;18465;295;7505826;-31
2023/07/28 10:28:32;;;;;;;2.10;0.50;;;;;;;-128.00;-1.00;-1.00;18456;295;7504956;-35
2023/07/28 10:30:58;;;;;;;0.50;0.50;;;;;;;-128.00;-1.00;-1.00;18482;295;7504596;-32
2023/07/28 10:33:26;;;;;;;0.90;0.50;;;;;;;-128.00;-1.00;-1.00;18474;295;7505716;-37
2023/07/28 10:35:53;;;;;;;1.10;0.40;;;;;;;-128.00;-1.00;-1.00;18481;295;7505792;-36
2023/07/28 10:38:31;;;;;;;1.20;0.80;;;;;;;-128.00;-1.00;-1.00;18444;336;7505712;-36
2023/07/28 10:41:13;;;;;;;0.30;0.30;;;;;;;-128.00;-1.00;-1.00;18467;295;7504875;-32
2023/07/28 10:43:40;;;;;;;4.40;0.70;;;;;;;-128.00;-1.00;-1.00;18490;295;7504140;-36
2023/07/28 10:46:08;;;;;;;0.60;0.60;;;;;;;-128.00;-1.00;-1.00;18483;295;7504808;-32
2023/07/28 10:48:36;;;;;;;1.00;0.70;;;;;;;-128.00;-1.00;-1.00;18465;336;7506007;-33
2023/07/28 10:51:02;;;;;;;1.20;0.40;;;;;;;-128.00;-1.00;-1.00;18504;295;7505824;-31
2023/07/28 10:53:27;;;;;;;13.60;0.70;;;;;;;-128.00;-1.00;-1.00;18487;295;7504173;-35
2023/07/28 10:55:53;;;;;;;1.10;0.60;;;;;;;-128.00;-1.00;-1.00;18480;323;7505880;-35
2023/07/28 10:58:20;;;;;;;1.50;0.60;;;;;;;-128.00;-1.00;-1.00;18466;295;7504281;-36
2023/07/28 11:00:45;;;;;;;3.70;0.90;;;;;;;-128.00;-1.00;-1.00;18477;306;7505133;-32
2023/07/28 11:03:12;;;;;;;0.70;0.70;;;;;;;-128.00;-1.00;-1.00;18451;318;7505260;-35
2023/07/28 11:05:37;;;;;;;1.20;0.60;;;;;;;-128.00;-1.00;-1.00;18507;347;7506223;-32
2023/07/28 11:08:03;;;;;;;1.80;0.60;;;;;;;-128.00;-1.00;-1.00;18473;295;7506363;-32
2023/07/28 11:10:29;;;;;;;1.00;0.70;;;;;;;-128.00;-1.00;-1.00;18473;295;7505686;-34
2023/07/28 11:12:57;;;;;;;1.00;0.80;;;;;;;-128.00;-1.00;-1.00;18473;295;7504843;-31
2023/07/28 11:15:24;;;;;;;0.40;0.40;;;;;;;-128.00;-1.00;-1.00;18499;295;7504562;-35
2023/07/28 11:17:51;;;;;;;0.40;0.40;;;;;;;-128.00;-1.00;-1.00;18476;318;7505860;-32
2023/07/28 11:20:18;;;;;;;0.50;0.50;;;;;;;-128.00;-1.00;-1.00;18492;295;7505784;-32
2023/07/28 11:22:44;;;;;;;0.50;0.50;;;;;;;-128.00;-1.00;-1.00;18438;295;7506231;-34
2023/07/28 11:25:10;;;;;;;1.40;0.60;;;;;;;-128.00;-1.00;-1.00;18470;295;7504647;-32
2023/07/28 11:27:37;;;;;;;1.90;0.80;;;;;;;-128.00;-1.00;-1.00;18457;311;7504981;-32
2023/07/28 11:30:06;;;;;;;1.00;0.60;;;;;;;-128.00;-1.00;-1.00;18478;295;7505063;-35
2023/07/28 11:32:34;;;;;;;0.50;0.40;;;;;;;-128.00;-1.00;-1.00;18490;311;7504593;-32
2023/07/28 11:35:08;;;;;;;0.80;0.60;;;;;;;-128.00;-1.00;-1.00;18458;319;7506077;-32
2023/07/28 11:37:35;;;;;;;1.10;0.70;;;;;;;-128.00;-1.00;-1.00;18499;295;7506560;-35
2023/07/28 11:40:10;;;;;;;0.70;0.60;;;;;;;-128.00;-1.00;-1.00;18482;285;7505571;-35
2023/07/28 11:42:38;;;;;;;1.10;1.00;;;;;;;-128.00;-1.00;-1.00;18471;295;7504676;-36
2023/07/28 11:45:04;;;;;;;1.10;0.90;;;;;;;-128.00;-1.00;-1.00;18483;296;7504429;-32
2023/07/28 11:47:30;;;;;;;0.70;0.60;;;;;;;-128.00;-1.00;-1.00;18462;295;7506400;-33
2023/07/28 11:49:58;;;;;;;0.50;0.50;;;;;;;-128.00;-1.00;-1.00;18454;287;7504793;-32
2023/07/28 11:52:24;;;;;;;1.10;0.80;;;;;;;-128.00;-1.00;-1.00;18446;295;7505381;-34
2023/07/28 11:54:51;;;;;;;0.90;0.70;;;;;;;-128.00;-1.00;-1.00;18458;295;7505760;-36
2023/07/28 11:57:17;;;;;;;1.00;0.90;;;;;;;-128.00;-1.00;-1.00;18439;318;7505078;-36
2023/07/28 11:59:43;;;;;;;0.90;0.40;;;;;;;-128.00;-1.00;-1.00;18466;295;7504393;-32
2023/07/28 12:02:09;;;;;;;0.80;0.50;;;;;;;-128.00;-1.00;-1.00;18461;288;7506067;-36
2023/07/28 12:04:36;;;;;;;8.10;0.60;;;;;;;-128.00;-1.00;-1.00;18494;295;7505102;-36
2023/07/28 12:07:07;;;;;;;1.00;0.60;;;;;;;-128.00;-1.00;-1.00;18571;295;7504311;-32
2023/07/28 12:09:46;;;;;;;0.40;0.40;;;;;;;-128.00;-1.00;-1.00;18507;295;7504871;-36
2023/07/28 12:12:12;;;;;;;1.80;0.70;;;;;;;-128.00;-1.00;-1.00;18473;295;7504960;-36